Louisburg, NC (27549)

7:42 AM EST on December 07, 2016 (GMT -0500)
Huntsburg and Royal | | Change Station

Elev 302 ft 36.04 °N, 78.35 °W | Updated 3 seconds ago

Clear
Clear
38.1 °F
Feels Like 38 °F
N
0.0
Wind Variable Wind from WSW
Gusts 0.0 mph

Today
High -- | Low -- °F
--% Chance of Precip.
Yesterday
High -- | Low -- °F
Precip. -- in
Pressure 30.01 in
Visibility 10.0 miles
Clouds Clear
Windchill 38 °F
Dew Point 36 °F
Humidity 93%
Rainfall 0.00 in
Snow Depth Not available.
7:11 AM 4:58 PM
First Quarter, 52% visible
METAR KRWI 071153Z AUTO 26003KT 10SM CLR 05/04 A3001 RMK AO2 SLP161 70022 T00500044 10067 20050 53022
Pressure 30.01 in
Visibility 10.0 miles
Clouds Clear
Windchill 38 °F
Dew Point 36 °F
Humidity 93%
Rainfall 0.00 in
Snow Depth Not available.
7:11 AM 4:58 PM
First Quarter, 52% visible
METAR KRWI 071153Z AUTO 26003KT 10SM CLR 05/04 A3001 RMK AO2 SLP161 70022 T00500044 10067 20050 53022

10-Day Weather Forecast

Almanac

Astronomy

Dec. 07, 2016 Rise Set
Actual Time
Civil Twilight
Nautical Twilight
Astronomical Twilight
Moon
Length of Visible Light
Length of Day
Tomorrow will be .
, % of the Moon is Illuminated

Today's Extremes

State Highs State Lows

Community

WunderPhotos

Upload Photos

1,956,112 photos uploaded!

WunderBlog® & News

Nearby

Air Quality

  Air Quality AQ Index Pollutant
Not available.

Snow Depth

Station Depth Elevation

Earthquake Activity

City Distance Mag. Time & Date
Minimum magnitude displayed is 2.5.

Coastal Water Temperatures

Place Temperature

Stations

Nearby Weather Stations

Station Location Temp. Windchill Dew Point Humidity Wind Precip. Elev Updated Type
                   

Watches & Warnings

There are currently no watches in effect.